Time;durP1;ratioP1;P1;durP2;ratioP2;P2;SDS_P1;SDS_P2;PMS_P1;PMS_P2;Temp;Humidity;BMP_temperature;BMP_pressure;BME280_temperature;BME280_humidity;BME280_pressure;Samples;Min_cycle;Max_cycle;Signal;HPM_P1;HPM_P2
2021/07/21 00:02:24;;;;;;;23.40;11.25;;;;;;;24.79;47.88;101472.66;5073334;28;20044;-64
2021/07/21 00:04:52;;;;;;;16.80;10.80;;;;;;;24.80;47.87;101457.38;5073275;28;20036;-64
2021/07/21 00:07:19;;;;;;;17.67;11.27;;;;;;;24.91;47.48;101458.25;5055589;28;20052;-65
2021/07/21 00:09:47;;;;;;;15.48;11.13;;;;;;;24.98;47.66;101459.13;5073369;28;20381;-65
2021/07/21 00:15:00;;;;;;;21.73;11.07;;;;;;;25.42;46.22;101461.78;5072975;28;20055;-65
2021/07/21 00:17:32;;;;;;;21.17;11.13;;;;;;;25.33;46.37;101453.66;5073270;28;20048;-64
2021/07/21 00:20:06;;;;;;;20.98;11.52;;;;;;;24.91;47.46;101459.06;5073271;28;20541;-64
2021/07/21 00:22:36;;;;;;;19.27;11.20;;;;;;;24.53;48.07;101462.34;5072854;28;20048;-64
2021/07/21 00:25:08;;;;;;;18.55;10.77;;;;;;;24.20;49.32;101459.69;5073080;28;20052;-63
2021/07/21 00:27:36;;;;;;;18.27;11.05;;;;;;;24.23;48.83;101461.72;5073332;28;20048;-63
2021/07/21 00:30:07;;;;;;;20.77;11.27;;;;;;;24.49;48.39;101456.72;5072585;28;20056;-64
2021/07/21 00:32:35;;;;;;;17.90;11.25;;;;;;;24.81;47.91;101456.97;5073135;28;20487;-64
2021/07/21 00:35:07;;;;;;;21.30;12.18;;;;;;;25.00;47.05;101458.72;5072950;28;20040;-64
2021/07/21 00:37:35;;;;;;;20.13;11.32;;;;;;;25.05;47.21;101462.00;5072909;28;20045;-64
2021/07/21 00:40:07;;;;;;;16.95;12.05;;;;;;;25.08;46.75;101469.66;5055077;28;20053;-63
2021/07/21 00:42:34;;;;;;;22.20;11.38;;;;;;;24.69;47.44;101470.56;5054792;28;20057;-63
2021/07/21 00:45:03;;;;;;;18.95;10.98;;;;;;;24.97;46.93;101473.59;5054968;28;20040;-64
2021/07/21 00:47:31;;;;;;;22.27;11.88;;;;;;;24.88;47.12;101462.66;5072280;28;20056;-64
2021/07/21 00:49:58;;;;;;;24.13;11.23;;;;;;;24.84;47.38;101463.84;5071364;28;20191;-64
2021/07/21 00:52:25;;;;;;;21.52;11.27;;;;;;;25.05;46.64;101464.00;5072824;28;20048;-63
2021/07/21 00:54:53;;;;;;;19.55;11.65;;;;;;;25.14;46.39;101468.06;5073619;28;20063;-62
2021/07/21 00:57:20;;;;;;;22.83;11.13;;;;;;;25.07;46.96;101473.66;5062325;28;20048;-63
2021/07/21 00:59:50;;;;;;;20.95;11.40;;;;;;;25.06;46.64;101465.59;5078433;28;20590;-63
2021/07/21 01:02:17;;;;;;;19.53;12.37;;;;;;;24.70;47.32;101480.66;5078476;28;20055;-63
2021/07/21 01:04:48;;;;;;;20.00;11.75;;;;;;;24.66;47.60;101480.59;5078116;28;20040;-65
2021/07/21 01:07:15;;;;;;;16.08;11.25;;;;;;;24.87;46.96;101469.50;5078352;28;20055;-63
2021/07/21 01:09:45;;;;;;;22.73;13.25;;;;;;;24.58;48.04;101473.28;5077679;28;20062;-63
2021/07/21 01:12:24;;;;;;;23.95;13.70;;;;;;;24.26;48.93;101475.00;5061962;28;20052;-64
2021/07/21 01:15:17;;;;;;;23.23;12.95;;;;;;;24.17;49.16;101480.94;5078406;28;20040;-63
2021/07/21 01:17:56;;;;;;;17.83;12.38;;;;;;;24.03;49.85;101478.00;5077790;28;20055;-65
2021/07/21 01:20:35;;;;;;;22.88;12.60;;;;;;;24.11;50.18;101476.06;5061494;28;20044;-63
2021/07/21 01:23:08;;;;;;;19.90;13.40;;;;;;;24.04;50.39;101482.41;5078483;28;20055;-58
2021/07/21 01:26:04;;;;;;;22.98;13.65;;;;;;;23.95;50.57;101476.28;5095982;28;20048;-57
2021/07/21 01:28:32;;;;;;;24.90;12.85;;;;;;;24.02;50.76;101482.00;5095970;28;20055;-56
2021/07/21 01:31:02;;;;;;;19.10;12.60;;;;;;;24.19;50.04;101477.75;5061419;28;20537;-55
2021/07/21 01:33:30;;;;;;;21.70;13.15;;;;;;;23.86;50.98;101478.59;5078260;28;20067;-57
2021/07/21 01:36:05;;;;;;;28.27;13.98;;;;;;;24.08;50.65;101469.19;5076635;28;20048;-57
2021/07/21 01:38:40;;;;;;;20.13;13.48;;;;;;;24.27;50.23;101468.97;5096066;28;20048;-58
2021/07/21 01:41:16;;;;;;;24.02;12.30;;;;;;;24.20;51.26;101466.09;5078193;28;20051;-57
2021/07/21 01:43:48;;;;;;;21.77;11.90;;;;;;;24.16;51.78;101472.91;5077932;28;20040;-57
2021/07/21 01:46:23;;;;;;;19.27;11.98;;;;;;;24.11;52.45;101467.63;5077449;28;20055;-64
2021/07/21 01:48:53;;;;;;;21.05;12.13;;;;;;;24.19;52.47;101475.75;5077687;28;20059;-64
2021/07/21 01:51:26;;;;;;;21.10;12.18;;;;;;;24.17;52.48;101469.69;5077399;28;20056;-63
2021/07/21 01:53:55;;;;;;;20.50;11.55;;;;;;;24.23;52.49;101476.56;5060824;28;20068;-64
2021/07/21 01:56:22;;;;;;;23.73;11.10;;;;;;;24.01;53.22;101488.81;5069784;28;20045;-63
2021/07/21 01:58:54;;;;;;;19.40;11.45;;;;;;;23.98;53.49;101481.13;5057792;28;20055;-63
2021/07/21 02:01:33;;;;;;;23.63;12.15;;;;;;;24.02;53.40;101486.81;5042239;28;20059;-64
2021/07/21 02:04:06;;;;;;;18.08;11.68;;;;;;;24.03;53.21;101480.81;5057133;28;20048;-63
2021/07/21 02:06:35;;;;;;;21.63;11.85;;;;;;;23.89;53.78;101494.69;5056118;28;20056;-64
2021/07/21 02:09:05;;;;;;;21.15;11.80;;;;;;;23.64;54.89;101487.16;5057270;28;20056;-64
2021/07/21 02:11:35;;;;;;;24.65;12.05;;;;;;;23.66;54.68;101484.78;5040697;28;20052;-64
2021/07/21 02:14:05;;;;;;;20.63;12.40;;;;;;;23.34;55.82;101499.22;5040280;28;20067;-64
2021/07/21 02:16:56;;;;;;;25.33;11.60;;;;;;;23.42;56.18;101491.69;5066291;28;20056;-64
2021/07/21 02:19:29;;;;;;;29.80;12.38;;;;;;;23.45;56.04;101493.72;5041445;28;20052;-64
2021/07/21 02:22:17;;;;;;;18.63;12.13;;;;;;;23.50;55.90;101492.59;5056761;28;20056;-63
2021/07/21 02:24:51;;;;;;;24.73;12.13;;;;;;;23.35;56.30;101483.97;5041585;28;20048;-63
2021/07/21 02:27:28;;;;;;;18.60;11.43;;;;;;;23.50;55.87;101501.84;5056702;28;20055;-63
2021/07/21 02:29:56;;;;;;;21.98;12.30;;;;;;;23.35;56.12;101500.03;5040485;28;20075;-62
2021/07/21 02:32:26;;;;;;;21.92;12.23;;;;;;;23.21;56.74;101492.19;5056511;28;20052;-63
2021/07/21 02:34:54;;;;;;;22.02;11.80;;;;;;;23.22;57.03;101490.19;5074646;28;20063;-62
2021/07/21 02:37:22;;;;;;;20.75;12.13;;;;;;;23.43;56.03;101480.06;5040303;28;20131;-63
2021/07/21 02:39:50;;;;;;;17.73;11.40;;;;;;;23.46;56.17;101489.75;5056708;28;20059;-63
2021/07/21 02:42:19;;;;;;;22.13;12.25;;;;;;;23.40;56.30;101488.44;5056247;28;20712;-63
2021/07/21 02:44:48;;;;;;;20.65;12.40;;;;;;;23.20;56.83;101487.75;5056324;28;20059;-63
2021/07/21 02:47:17;;;;;;;19.98;12.52;;;;;;;23.18;57.15;101492.13;5056340;28;20055;-63
2021/07/21 02:49:50;;;;;;;20.48;12.25;;;;;;;23.32;56.81;101492.38;5056536;28;20431;-62
2021/07/21 02:52:29;;;;;;;19.77;12.02;;;;;;;23.33;56.76;101491.97;5074434;28;20055;-63
2021/07/21 02:55:10;;;;;;;17.88;11.20;;;;;;;23.16;57.33;101491.69;5055641;28;20060;-62
2021/07/21 02:57:55;;;;;;;21.65;12.55;;;;;;;23.06;57.70;101492.34;5092332;28;20051;-63
2021/07/21 03:00:26;;;;;;;16.25;11.00;;;;;;;23.01;57.95;101501.91;5076081;28;20529;-63
2021/07/21 03:03:09;;;;;;;23.02;12.05;;;;;;;23.00;57.58;101496.66;5076168;28;20499;-63
2021/07/21 03:05:42;;;;;;;18.73;11.60;;;;;;;22.69;58.90;101497.81;5076762;28;20048;-63
2021/07/21 03:08:19;;;;;;;19.50;12.40;;;;;;;22.90;58.33;101500.13;5076399;28;20056;-63
2021/07/21 03:10:52;;;;;;;21.52;12.55;;;;;;;22.66;59.23;101504.19;5044462;28;20059;-63
2021/07/21 03:13:24;;;;;;;18.63;12.25;;;;;;;22.75;58.80;101504.72;5093838;28;20040;-63
2021/07/21 03:15:56;;;;;;;20.30;12.68;;;;;;;22.37;59.98;101507.63;5060243;28;20445;-63
2021/07/21 03:18:34;;;;;;;22.88;12.43;;;;;;;22.41;60.17;101511.31;5075354;28;20048;-65
2021/07/21 03:21:03;;;;;;;19.30;11.85;;;;;;;22.37;60.36;101506.84;5059686;28;20063;-64
2021/07/21 03:23:36;;;;;;;20.30;13.18;;;;;;;22.60;59.51;101511.28;5060117;28;20047;-64
2021/07/21 03:26:22;;;;;;;21.17;12.25;;;;;;;22.74;59.35;101510.72;5093977;28;20050;-63
2021/07/21 03:28:53;;;;;;;19.20;12.98;;;;;;;22.61;59.68;101517.72;5075892;28;20066;-63
2021/07/21 03:31:22;;;;;;;17.98;12.75;;;;;;;22.48;59.82;101510.63;5059691;28;20047;-62
2021/07/21 03:34:05;;;;;;;19.40;12.93;;;;;;;22.51;59.97;101515.53;5075093;28;20525;-64
2021/07/21 03:36:44;;;;;;;22.92;13.45;;;;;;;22.48;60.10;101517.06;5076822;28;20044;-62
2021/07/21 03:39:29;;;;;;;22.88;13.05;;;;;;;22.28;61.18;101516.31;5062117;28;20073;-64
2021/07/21 03:42:14;;;;;;;20.20;12.75;;;;;;;22.42;60.73;101512.16;5075338;28;20055;-64
2021/07/21 03:44:44;;;;;;;22.30;13.07;;;;;;;22.45;60.81;101514.19;5075528;28;20047;-63
2021/07/21 03:47:14;;;;;;;23.48;13.75;;;;;;;22.42;60.68;101510.13;5075303;28;20075;-62
2021/07/21 03:49:43;;;;;;;;;;;;;;;22.69;59.96;101514.66;5076015;28;20048;-63
2021/07/21 03:52:14;;;;;;;19.17;12.45;;;;;;;22.37;60.90;101513.25;5075489;28;19920;-63
2021/07/21 03:55:03;;;;;;;22.50;14.13;;;;;;;22.32;60.97;101510.75;5093397;28;20055;-64
2021/07/21 03:57:44;;;;;;;21.73;13.25;;;;;;;22.37;61.14;101513.25;5056011;28;20049;-64
2021/07/21 04:00:16;;;;;;;23.05;12.38;;;;;;;22.51;60.67;101513.50;5055490;28;20515;-62
2021/07/21 04:02:55;;;;;;;21.55;12.75;;;;;;;22.61;60.37;101514.91;5073350;28;20051;-63
2021/07/21 04:05:26;;;;;;;23.15;12.88;;;;;;;22.56;60.52;101504.78;5039649;28;20064;-64
2021/07/21 04:08:01;;;;;;;24.13;12.20;;;;;;;22.43;61.07;101519.38;5039981;28;20052;-64
2021/07/21 04:10:29;;;;;;;19.08;12.75;;;;;;;22.25;61.32;101528.28;5038974;28;20067;-63
2021/07/21 04:12:59;;;;;;;20.35;12.13;;;;;;;22.26;61.70;101521.47;5038795;28;20455;-63
2021/07/21 04:15:38;;;;;;;19.50;12.20;;;;;;;22.15;62.09;101523.28;5055576;28;20495;-63
2021/07/21 04:18:10;;;;;;;20.38;13.05;;;;;;;22.29;61.79;101525.53;5039209;28;20477;-64
2021/07/21 04:20:39;;;;;;;21.42;13.73;;;;;;;22.11;62.08;101525.22;5035443;28;20124;-63
2021/07/21 04:23:07;;;;;;;22.48;13.05;;;;;;;22.19;61.93;101523.34;5035557;28;20057;-64
2021/07/21 04:25:36;;;;;;;20.70;12.57;;;;;;;21.95;62.58;101532.09;5035503;28;20048;-64
2021/07/21 04:28:07;;;;;;;22.17;13.10;;;;;;;22.12;62.47;101538.03;5035623;28;20049;-63
2021/07/21 04:30:44;;;;;;;20.05;12.93;;;;;;;22.26;61.70;101529.91;5037469;28;20067;-64
2021/07/21 04:33:12;;;;;;;20.95;12.40;;;;;;;22.10;62.61;101539.63;5038902;28;20064;-62
2021/07/21 04:35:41;;;;;;;22.98;13.23;;;;;;;21.96;63.34;101545.75;5039037;28;20056;-63
2021/07/21 04:38:14;;;;;;;19.95;13.40;;;;;;;22.07;62.79;101543.97;5038958;28;20049;-63
2021/07/21 04:41:02;;;;;;;22.90;13.32;;;;;;;21.95;63.31;101540.53;5035210;28;20424;-63
2021/07/21 04:43:29;;;;;;;21.92;13.88;;;;;;;22.10;62.85;101539.63;5038821;28;20060;-63
2021/07/21 04:45:58;;;;;;;22.57;13.30;;;;;;;22.34;61.90;101544.88;5030270;28;20048;-64
2021/07/21 04:48:26;;;;;;;21.25;13.88;;;;;;;22.11;62.62;101547.66;5075254;28;20052;-64
2021/07/21 04:51:02;;;;;;;24.20;14.07;;;;;;;22.02;63.02;101549.09;5075881;28;20048;-64
2021/07/21 04:53:32;;;;;;;21.38;12.35;;;;;;;22.20;62.24;101539.81;5075292;28;20049;-63
2021/07/21 04:56:00;;;;;;;19.25;12.63;;;;;;;22.19;62.42;101549.41;5078527;28;20048;-63
2021/07/21 04:58:27;;;;;;;22.42;14.18;;;;;;;22.14;62.80;101555.31;5078129;28;20044;-63
2021/07/21 05:01:04;;;;;;;21.90;13.52;;;;;;;21.99;62.85;101561.84;5078697;28;20379;-63
2021/07/21 05:03:33;;;;;;;24.67;13.73;;;;;;;22.00;63.28;101562.66;5095888;28;20541;-64
2021/07/21 05:06:02;;;;;;;43.03;15.60;;;;;;;21.96;63.43;101562.59;5078506;28;20307;-63
2021/07/21 05:08:37;;;;;;;21.50;13.43;;;;;;;22.15;62.72;101565.38;5077723;28;20450;-63
2021/07/21 05:11:19;;;;;;;23.92;14.75;;;;;;;21.96;63.56;101568.22;5078043;28;20186;-64
2021/07/21 05:13:48;;;;;;;19.48;13.93;;;;;;;22.13;63.12;101566.94;5077838;28;20433;-64
2021/07/21 05:16:18;;;;;;;23.95;13.55;;;;;;;22.23;62.95;101572.75;5078330;28;20063;-64
2021/07/21 05:18:46;;;;;;;23.30;15.60;;;;;;;22.25;62.60;101564.78;5077504;28;20067;-64
2021/07/21 05:21:21;;;;;;;22.50;14.57;;;;;;;22.40;62.28;101571.47;5096043;28;20051;-63
2021/07/21 05:23:50;;;;;;;32.33;17.25;;;;;;;21.96;63.73;101578.59;5062065;28;20557;-64
2021/07/21 05:26:18;;;;;;;25.05;16.35;;;;;;;22.01;63.53;101578.31;5096408;28;20048;-64
2021/07/21 05:28:58;;;;;;;31.13;16.60;;;;;;;22.39;62.46;101586.69;5077568;28;20096;-64
2021/07/21 05:31:50;;;;;;;28.58;16.13;;;;;;;22.43;62.30;101581.94;5096187;28;20044;-64
2021/07/21 05:34:23;;;;;;;28.38;14.60;;;;;;;22.62;61.58;101584.75;5095531;28;20498;-63
2021/07/21 05:36:56;;;;;;;22.25;15.00;;;;;;;22.46;62.16;101588.81;5077633;28;20163;-64
2021/07/21 05:39:34;;;;;;;27.30;14.90;;;;;;;22.51;61.71;101588.53;5077741;28;20055;-64
2021/07/21 05:42:02;;;;;;;26.60;15.40;;;;;;;22.60;62.07;101594.72;5076891;28;20052;-64
2021/07/21 05:44:33;;;;;;;24.13;14.85;;;;;;;22.53;61.94;101597.38;5077310;28;20044;-63
2021/07/21 05:47:00;;;;;;;25.85;14.77;;;;;;;22.63;61.36;101594.00;5096046;28;20075;-62
2021/07/21 05:49:28;;;;;;;23.60;14.50;;;;;;;22.47;61.64;101598.88;5076409;28;20541;-64
2021/07/21 05:52:18;;;;;;;29.77;15.88;;;;;;;22.51;62.08;101599.75;5091609;28;20431;-65
2021/07/21 05:54:46;;;;;;;20.58;14.90;;;;;;;22.78;61.28;101598.66;5077093;28;20059;-65
2021/07/21 05:57:17;;;;;;;24.08;14.75;;;;;;;22.67;61.60;101595.66;5062277;28;20055;-65
2021/07/21 05:59:49;;;;;;;22.27;14.48;;;;;;;22.85;60.85;101590.38;5057185;28;20057;-64
2021/07/21 06:02:19;;;;;;;24.02;14.73;;;;;;;22.75;61.46;101593.81;5057116;28;20538;-64
2021/07/21 06:04:50;;;;;;;27.58;14.20;;;;;;;22.88;61.01;101601.66;5041098;28;20057;-64
2021/07/21 06:07:36;;;;;;;24.50;14.73;;;;;;;22.95;60.87;101598.16;5075249;28;20599;-65
2021/07/21 06:10:24;;;;;;;26.67;15.38;;;;;;;23.05;60.19;101603.94;5073522;28;20049;-64
2021/07/21 06:12:57;;;;;;;25.23;16.27;;;;;;;22.80;60.56;101607.53;5041400;28;20059;-63
2021/07/21 06:15:29;;;;;;;25.70;14.88;;;;;;;22.94;60.48;101602.16;5074821;28;20053;-64
2021/07/21 06:17:58;;;;;;;22.52;15.07;;;;;;;22.93;60.75;101611.75;5056774;28;20511;-64
2021/07/21 06:20:45;;;;;;;24.83;15.52;;;;;;;22.93;60.21;101623.81;5074747;28;20056;-63
2021/07/21 06:23:13;;;;;;;25.40;16.83;;;;;;;22.71;61.02;101626.63;5057041;28;20063;-63
2021/07/21 06:25:43;;;;;;;24.42;15.57;;;;;;;22.88;60.70;101629.75;5074688;28;20048;-63
2021/07/21 06:28:31;;;;;;;31.67;16.52;;;;;;;23.07;60.39;101628.88;5042693;28;20060;-63
2021/07/21 06:30:59;;;;;;;27.52;17.50;;;;;;;23.17;59.82;101637.47;5056974;28;20056;-65
2021/07/21 06:33:28;;;;;;;27.73;16.63;;;;;;;23.20;59.52;101641.56;5074544;28;20063;-64
2021/07/21 06:35:57;;;;;;;34.08;16.55;;;;;;;23.12;59.66;101642.59;5056272;28;20056;-63
2021/07/21 06:38:30;;;;;;;30.25;17.13;;;;;;;23.08;59.85;101644.56;5056053;28;20079;-64
2021/07/21 06:41:04;;;;;;;31.77;17.75;;;;;;;23.01;59.87;101650.06;5074370;28;20064;-63
2021/07/21 06:43:38;;;;;;;42.13;18.15;;;;;;;23.04;60.07;101640.88;5056529;28;20052;-64
2021/07/21 06:46:12;;;;;;;28.95;17.48;;;;;;;23.20;59.42;101642.38;5074485;28;20059;-63
2021/07/21 06:48:43;;;;;;;30.10;18.23;;;;;;;23.00;59.77;101646.44;5056167;28;20496;-64
2021/07/21 06:51:12;;;;;;;31.08;19.17;;;;;;;23.90;56.99;101645.44;5056390;28;20500;-65
2021/07/21 06:53:40;;;;;;;31.60;18.85;;;;;;;23.80;57.36;101648.16;5055452;28;20412;-64
2021/07/21 06:56:13;;;;;;;34.22;18.48;;;;;;;23.75;57.21;101649.28;5080299;28;20399;-63
2021/07/21 06:59:13;;;;;;;34.20;19.20;;;;;;;23.73;57.11;101646.03;5030075;28;20057;-64
2021/07/21 07:01:40;;;;;;;31.63;18.42;;;;;;;24.01;56.21;101648.44;5057374;28;20505;-64
2021/07/21 07:04:26;;;;;;;28.92;17.83;;;;;;;24.02;56.01;101645.28;5066186;28;20044;-64
2021/07/21 07:07:12;;;;;;;29.80;18.48;;;;;;;24.31;55.28;101654.88;5054246;28;20056;-63
2021/07/21 07:10:18;;;;;;;36.53;19.42;;;;;;;24.18;54.77;101650.69;5010920;28;20061;-66
2021/07/21 07:12:46;;;;;;;35.70;18.85;;;;;;;24.11;54.77;101653.44;5062031;28;20067;-64
2021/07/21 07:15:14;;;;;;;31.65;19.73;;;;;;;24.20;54.19;101649.09;5073875;28;20048;-66
2021/07/21 07:17:41;;;;;;;30.67;20.25;;;;;;;24.19;51.12;101647.50;5073321;28;20060;-63
2021/07/21 07:20:09;;;;;;;29.02;19.65;;;;;;;24.37;49.68;101650.53;5073766;28;20099;-64
2021/07/21 07:22:36;;;;;;;27.05;19.80;;;;;;;24.20;49.15;101651.13;5074054;28;20083;-64
2021/07/21 07:25:05;;;;;;;27.33;19.20;;;;;;;24.09;49.49;101647.38;5055904;28;20048;-64
2021/07/21 07:27:32;;;;;;;26.33;19.50;;;;;;;24.24;49.16;101652.78;5073671;28;20045;-63
2021/07/21 07:30:00;;;;;;;28.55;18.83;;;;;;;24.16;49.67;101653.91;5073620;28;20056;-64
2021/07/21 07:32:28;;;;;;;26.52;19.42;;;;;;;24.21;49.25;101653.56;5055845;28;20052;-64
2021/07/21 07:34:55;;;;;;;30.15;20.35;;;;;;;24.45;48.09;101655.84;5073714;28;20053;-65
2021/07/21 07:37:22;;;;;;;29.35;20.08;;;;;;;24.58;47.77;101652.78;5055681;28;20059;-63
2021/07/21 07:39:50;;;;;;;26.67;19.02;;;;;;;24.59;48.40;101657.19;5055533;28;20495;-63
2021/07/21 07:42:18;;;;;;;30.95;21.35;;;;;;;24.69;47.87;101645.25;5073372;28;20056;-63
2021/07/21 07:44:45;;;;;;;27.85;20.42;;;;;;;24.81;48.10;101650.66;5073507;28;20063;-63
2021/07/21 07:47:13;;;;;;;34.65;26.10;;;;;;;24.90;47.38;101654.75;5073783;28;20048;-64
2021/07/21 07:49:40;;;;;;;30.13;20.50;;;;;;;24.80;47.84;101649.81;5055744;28;20482;-63
2021/07/21 07:52:08;;;;;;;35.08;20.17;;;;;;;25.13;47.02;101648.91;5073271;28;20059;-63
2021/07/21 07:54:35;;;;;;;28.55;22.25;;;;;;;25.27;46.61;101655.50;5054760;28;20057;-64
2021/07/21 07:57:03;;;;;;;30.20;21.08;;;;;;;25.61;46.15;101642.09;5086438;28;20048;-63
2021/07/21 07:59:30;;;;;;;29.70;19.63;;;;;;;25.61;45.85;101639.25;5074979;28;20056;-64
2021/07/21 08:01:58;;;;;;;32.13;19.30;;;;;;;25.53;46.27;101649.69;5093626;28;20545;-64
2021/07/21 08:04:25;;;;;;;30.85;20.48;;;;;;;25.47;46.53;101648.41;5093347;28;20052;-65
2021/07/21 08:06:53;;;;;;;27.45;19.20;;;;;;;25.56;46.08;101636.78;5097799;28;20048;-64
2021/07/21 08:09:20;;;;;;;32.05;20.50;;;;;;;25.59;46.55;101645.28;5097625;28;20048;-64
2021/07/21 08:11:48;;;;;;;28.75;20.15;;;;;;;25.54;46.23;101633.56;5097847;28;20379;-64
2021/07/21 08:14:17;;;;;;;28.83;18.88;;;;;;;25.73;45.82;101644.59;5096899;28;20494;-64
2021/07/21 08:16:46;;;;;;;26.35;17.38;;;;;;;25.55;46.16;101643.66;5097549;28;20056;-64
2021/07/21 08:19:14;;;;;;;29.30;18.23;;;;;;;25.69;45.11;101646.56;5096642;28;20063;-63
2021/07/21 08:21:41;;;;;;;27.23;18.75;;;;;;;25.50;46.13;101641.19;5097636;28;20419;-63
2021/07/21 08:24:09;;;;;;;28.02;16.20;;;;;;;25.41;45.75;101644.34;5078537;28;20056;-64
2021/07/21 08:26:36;;;;;;;26.40;16.20;;;;;;;25.51;45.50;101654.09;5097943;28;20032;-64
2021/07/21 08:29:04;;;;;;;24.15;16.63;;;;;;;25.67;45.07;101660.25;5096997;28;20408;-63
2021/07/21 08:31:31;;;;;;;24.63;16.10;;;;;;;25.76;44.43;101655.06;5097364;28;20054;-63
2021/07/21 08:34:02;;;;;;;21.95;14.45;;;;;;;25.62;44.50;101656.97;5097227;28;20051;-64
2021/07/21 08:36:30;;;;;;;23.95;13.82;;;;;;;25.69;44.21;101652.22;5097394;28;20051;-64
2021/07/21 08:38:57;;;;;;;20.85;14.27;;;;;;;25.35;44.27;101656.38;5078866;28;20491;-64
2021/07/21 08:41:28;;;;;;;22.80;14.20;;;;;;;25.47;44.19;101653.28;5093650;28;20171;-64
2021/07/21 08:43:55;;;;;;;22.45;14.18;;;;;;;25.52;44.50;101650.09;5076770;28;20055;-65
2021/07/21 08:46:23;;;;;;;18.55;13.90;;;;;;;25.42;44.48;101656.44;5076702;28;20837;-64
2021/07/21 08:48:53;;;;;;;23.88;13.52;;;;;;;25.37;44.67;101645.50;5076547;28;20059;-64
2021/07/21 08:51:22;;;;;;;22.75;13.15;;;;;;;25.58;44.24;101640.03;5076788;28;20048;-63
2021/07/21 08:53:51;;;;;;;21.23;12.68;;;;;;;25.72;43.65;101644.97;5076652;28;20095;-63
2021/07/21 08:56:19;;;;;;;19.85;13.23;;;;;;;25.58;44.05;101642.06;5076578;28;20051;-64
2021/07/21 08:58:48;;;;;;;18.80;12.23;;;;;;;25.58;43.73;101652.13;5075930;28;20048;-64
2021/07/21 09:01:16;;;;;;;19.33;12.05;;;;;;;25.39;43.70;101646.75;5058477;28;20045;-64
2021/07/21 09:03:44;;;;;;;22.60;12.50;;;;;;;25.24;43.81;101647.81;5057798;28;20052;-64
2021/07/21 09:06:13;;;;;;;17.08;11.32;;;;;;;25.51;43.82;101642.81;5076168;28;20048;-64
2021/07/21 09:08:41;;;;;;;18.08;12.35;;;;;;;25.53;43.59;101634.75;5057847;28;20068;-64
2021/07/21 09:11:10;;;;;;;31.77;12.38;;;;;;;25.42;43.81;101647.97;5076212;28;20392;-63
2021/07/21 09:13:38;;;;;;;20.83;12.30;;;;;;;25.57;43.07;101644.06;5076274;28;20076;-63
2021/07/21 09:16:06;;;;;;;19.63;11.73;;;;;;;25.64;42.64;101651.75;5075794;28;20295;-64
2021/07/21 09:18:49;;;;;;;16.58;10.48;;;;;;;25.35;43.14;101654.34;5057140;28;20163;-64
2021/07/21 09:21:18;;;;;;;21.38;11.85;;;;;;;25.33;42.87;101653.91;5076020;28;20044;-64
2021/07/21 09:23:50;;;;;;;23.10;12.57;;;;;;;25.25;43.70;101657.06;5075956;28;20059;-63
2021/07/21 09:26:32;;;;;;;18.85;10.60;;;;;;;25.39;42.77;101651.59;5075966;28;20424;-64
2021/07/21 09:29:02;;;;;;;20.48;11.65;;;;;;;25.44;42.59;101654.03;5075609;28;20052;-62
2021/07/21 09:31:33;;;;;;;19.38;12.02;;;;;;;25.51;42.56;101645.63;5075742;28;20053;-63
2021/07/21 09:34:14;;;;;;;20.77;11.85;;;;;;;25.62;43.10;101646.50;5075481;28;20659;-64
2021/07/21 09:36:41;;;;;;;19.25;12.15;;;;;;;25.53;43.51;101654.50;5075676;28;20048;-65
2021/07/21 09:39:10;;;;;;;23.48;13.70;;;;;;;25.71;44.08;101644.16;5057732;28;20518;-64
2021/07/21 09:41:39;;;;;;;;;;;;;;;25.69;43.03;101654.22;5076262;28;20048;-64
2021/07/21 09:44:06;;;;;;;22.02;13.43;;;;;;;25.66;43.72;101650.19;5075403;28;19924;-64
2021/07/21 09:46:34;;;;;;;22.70;13.27;;;;;;;25.74;43.45;101649.00;5075620;28;20547;-64
2021/07/21 09:49:01;;;;;;;18.65;12.30;;;;;;;25.83;43.72;101638.19;5075137;28;20048;-64
2021/07/21 09:51:30;;;;;;;22.55;12.65;;;;;;;25.90;43.13;101640.22;5075569;28;20049;-65
2021/07/21 09:54:14;;;;;;;23.77;14.18;;;;;;;25.80;43.49;101646.63;5075188;28;20065;-64
2021/07/21 09:56:44;;;;;;;19.75;14.27;;;;;;;25.78;44.24;101643.38;5085235;28;20059;-63
2021/07/21 09:59:26;;;;;;;21.35;13.65;;;;;;;25.91;43.90;101637.00;5095319;28;20048;-63
2021/07/21 10:01:53;;;;;;;25.80;13.63;;;;;;;25.57;44.89;101638.44;5095516;28;20067;-65
2021/07/21 10:04:36;;;;;;;20.65;14.27;;;;;;;25.36;45.68;101641.06;5095325;28;20163;-64
2021/07/21 10:07:21;;;;;;;25.45;15.00;;;;;;;25.41;45.70;101643.53;5095428;28;20055;-63
2021/07/21 10:09:48;;;;;;;23.83;13.45;;;;;;;25.67;44.73;101643.31;5095197;28;20054;-64
2021/07/21 10:12:17;;;;;;;23.52;13.75;;;;;;;25.49;45.73;101631.09;5077326;28;20048;-64
2021/07/21 10:14:54;;;;;;;23.00;13.80;;;;;;;25.35;45.80;101633.81;5095032;28;20076;-63
2021/07/21 10:17:21;;;;;;;22.10;13.55;;;;;;;25.78;44.93;101635.72;5095245;28;20056;-67
2021/07/21 10:19:48;;;;;;;29.23;14.55;;;;;;;25.92;44.45;101633.00;5092980;28;20036;-64
2021/07/21 10:22:16;;;;;;;23.50;13.65;;;;;;;26.20;43.66;101627.50;5057302;28;20040;-64
2021/07/21 10:24:44;;;;;;;20.23;14.63;;;;;;;25.94;44.00;101627.75;5074953;28;20048;-65
2021/07/21 10:27:12;;;;;;;16.70;11.50;;;;;;;25.84;43.79;101627.72;5073953;28;20052;-65
2021/07/21 10:29:39;;;;;;;18.17;11.05;;;;;;;26.01;43.74;101635.44;5056480;28;20079;-64
2021/07/21 10:32:07;;;;;;;16.52;11.18;;;;;;;25.86;44.02;101626.09;5074834;28;20048;-64
2021/07/21 10:34:34;;;;;;;17.48;11.77;;;;;;;25.99;43.56;101633.03;5074245;28;20075;-64
2021/07/21 10:37:02;;;;;;;18.40;12.18;;;;;;;26.04;43.36;101629.84;5057137;28;20051;-63
2021/07/21 10:39:32;;;;;;;22.88;11.50;;;;;;;26.14;43.26;101619.78;5074187;28;20090;-63
2021/07/21 10:42:07;;;;;;;17.45;10.25;;;;;;;25.79;43.51;101631.69;5039809;28;20072;-65
2021/07/21 10:44:34;;;;;;;18.63;10.30;;;;;;;25.96;44.11;101633.00;5074070;28;20052;-64
2021/07/21 10:47:20;;;;;;;15.35;10.20;;;;;;;26.09;44.03;101643.59;5074402;28;20397;-64
2021/07/21 10:50:09;;;;;;;18.65;10.43;;;;;;;26.07;43.98;101634.69;5074108;28;20040;-64
2021/07/21 10:55:17;;;;;;;19.88;11.13;;;;;;;26.10;43.61;101633.91;5074025;28;20064;-64
2021/07/21 11:00:36;;;;;;;20.55;10.40;;;;;;;26.38;42.66;101633.19;5093887;28;20055;-64
2021/07/21 11:03:24;;;;;;;16.48;10.43;;;;;;;26.39;43.55;101629.19;5094494;28;20082;-67
2021/07/21 11:05:59;;;;;;;15.45;10.55;;;;;;;26.52;43.14;101628.41;5094476;28;20052;-65
2021/07/21 11:08:28;;;;;;;16.30;9.60;;;;;;;26.63;42.90;101614.28;5094291;28;20487;-65
2021/07/21 11:11:16;;;;;;;15.98;10.32;;;;;;;26.77;42.51;101625.66;5075915;28;20051;-65
2021/07/21 11:13:43;;;;;;;18.50;9.93;;;;;;;26.82;42.81;101613.13;5093821;28;20060;-64
2021/07/21 11:16:41;;;;;;;16.23;9.45;;;;;;;26.81;42.18;101618.00;5094339;28;20047;-63
2021/07/21 11:19:26;;;;;;;20.30;10.77;;;;;;;26.74;42.19;101615.16;5073772;28;20052;-66
2021/07/21 11:22:02;;;;;;;13.27;10.30;;;;;;;26.78;42.16;101612.34;5075722;28;20074;-65
2021/07/21 11:24:30;;;;;;;17.13;10.50;;;;;;;26.71;42.13;101615.94;5093830;28;20494;-64
2021/07/21 11:26:58;;;;;;;20.38;11.20;;;;;;;26.73;42.51;101610.69;5093925;28;20557;-64
2021/07/21 11:29:27;;;;;;;17.75;11.20;;;;;;;26.73;42.84;101607.88;5093915;28;20059;-65
2021/07/21 11:31:54;;;;;;;19.98;11.05;;;;;;;26.97;42.00;101604.25;5093754;28;20067;-65
2021/07/21 11:34:40;;;;;;;17.95;10.38;;;;;;;26.84;42.65;101605.06;5093471;28;20044;-65
2021/07/21 11:37:28;;;;;;;;;;;;;;;26.58;43.51;101603.38;5094389;28;20402;-63
2021/07/21 11:39:57;;;;;;;18.90;10.95;;;;;;;26.44;43.51;101601.34;5093417;28;19919;-64
2021/07/21 11:42:27;;;;;;;15.02;10.35;;;;;;;26.71;42.69;101593.31;5093462;28;20051;-64